logo
Rechercher aéroport 
image banner adimage banner adimage banner ad
image banner ad

7CA8 - Eisenhower Medical Center

Situé à Rancho Mirage, United States

ICAO - 7CA8, IATA -

Données fournies par Airmate  

Information générale

Coordonnées: N33°45'51" W116°24'18"
Élévation : 234 feet MSL.
Variation magnétique : 13° East
Voir autres Aéroports à California

Données opérationnelles

Special qualification required
Heure actuelle UTC:
Heure actuelle locale:
Météo à : KPSP - Palm Springs Intl ( 12 km )
METAR: KPSP 261553Z 33004KT 10SM CLR 35/09 A2989 RMK AO2 SLP117 T03500089
TAF: KPSP 261120Z 2612/2712 VRB05KT P6SM SKC FM261800 12007KT P6SM SCT100 FM270300 33007KT P6SM SKC
Voir NOTAMs / SUP AIP / TFR affectant cet aéroport [VIEW]
Fréquences de communication: [VIEW]

Pistes:

Coordonnées de l'aéroport

Adresse: Rancho Mirage United States

Vue satellite de 7CA8